Time;durP1;ratioP1;P1;durP2;ratioP2;P2;SDS_P1;SDS_P2;PMS_P1;PMS_P2;Temp;Humidity;BMP_temperature;BMP_pressure;BME280_temperature;BME280_humidity;BME280_pressure;Samples;Min_cycle;Max_cycle;Signal;HPM_P1;HPM_P2
2021/11/23 00:01:42;;;;;;;1.70;0.93;;;2.40;91.00;;;;;;4991551;28;20382;-63
2021/11/23 00:04:07;;;;;;;1.73;0.98;;;2.50;91.00;;;;;;4974433;28;20031;-63
2021/11/23 00:06:35;;;;;;;3.72;1.02;;;2.40;91.00;;;;;;4991461;28;20056;-63
2021/11/23 00:09:01;;;;;;;2.15;1.00;;;2.50;91.00;;;;;;4993912;28;20482;-63
2021/11/23 00:11:27;;;;;;;2.63;1.33;;;2.40;91.00;;;;;;4995152;28;20391;-63
2021/11/23 00:13:52;;;;;;;3.08;1.40;;;2.40;91.00;;;;;;4995428;28;20020;-63
2021/11/23 00:16:19;;;;;;;2.53;1.30;;;2.40;91.10;;;;;;4995509;28;20023;-63
2021/11/23 00:18:46;;;;;;;2.88;1.48;;;2.50;91.10;;;;;;4993100;28;20053;-63
2021/11/23 00:21:13;;;;;;;3.80;1.65;;;2.40;91.10;;;;;;4995491;28;20073;-63
2021/11/23 00:23:38;;;;;;;2.47;1.48;;;2.40;91.10;;;;;;4995347;28;20087;-63
2021/11/23 00:26:05;;;;;;;1.90;0.95;;;2.30;91.20;;;;;;4995478;28;20475;-63
2021/11/23 00:28:30;;;;;;;1.38;0.85;;;2.30;91.40;;;;;;4977410;28;20110;-63
2021/11/23 00:30:56;;;;;;;4.38;1.15;;;2.20;91.40;;;;;;4977652;28;20117;-63
2021/11/23 00:33:22;;;;;;;1.98;1.10;;;2.30;91.50;;;;;;4995295;28;20022;-63
2021/11/23 00:35:48;;;;;;;1.88;1.02;;;2.20;91.50;;;;;;4995277;28;20367;-63
2021/11/23 00:38:15;;;;;;;3.00;1.13;;;2.20;91.50;;;;;;4995333;28;20018;-63
2021/11/23 00:40:41;;;;;;;2.40;1.20;;;2.20;91.90;;;;;;4995028;28;20058;-63
2021/11/23 00:43:06;;;;;;;2.72;1.00;;;2.20;91.60;;;;;;4994998;28;20170;-63
2021/11/23 00:45:33;;;;;;;2.25;0.90;;;2.20;91.60;;;;;;4994496;28;20019;-63
2021/11/23 00:47:59;;;;;;;3.05;1.20;;;2.20;91.70;;;;;;4995169;28;20475;-63
2021/11/23 00:50:25;;;;;;;1.50;0.80;;;2.20;91.70;;;;;;4995059;28;20093;-63
2021/11/23 00:52:50;;;;;;;1.33;0.90;;;2.20;91.80;;;;;;4994724;28;20506;-63
2021/11/23 00:55:16;;;;;;;1.50;0.85;;;2.10;91.80;;;;;;4995093;28;20027;-63
2021/11/23 00:57:42;;;;;;;2.95;1.42;;;2.10;92.00;;;;;;5001527;28;20068;-63
2021/11/23 01:00:10;;;;;;;1.38;1.00;;;2.10;92.00;;;;;;5013704;28;20079;-63
2021/11/23 01:02:35;;;;;;;3.10;1.48;;;2.10;92.00;;;;;;5013854;28;20026;-64
2021/11/23 01:05:02;;;;;;;3.42;1.35;;;2.10;92.10;;;;;;5014276;28;20048;-63
2021/11/23 01:07:27;;;;;;;2.65;1.17;;;2.20;92.10;;;;;;5014106;28;20025;-63
2021/11/23 01:09:53;;;;;;;3.55;1.42;;;2.20;92.10;;;;;;5013995;28;20037;-63
2021/11/23 01:12:18;;;;;;;2.80;1.60;;;2.20;92.10;;;;;;5014132;28;20634;-63
2021/11/23 01:14:44;;;;;;;3.25;1.83;;;2.20;92.20;;;;;;4996357;28;20509;-63
2021/11/23 01:17:10;;;;;;;4.30;1.73;;;2.20;92.20;;;;;;5013870;28;20034;-66
2021/11/23 01:19:35;;;;;;;4.85;1.45;;;2.20;92.20;;;;;;4993411;28;20018;-63
2021/11/23 01:22:01;;;;;;;5.50;3.15;;;2.20;92.30;;;;;;5013501;28;20038;-63
2021/11/23 01:24:27;;;;;;;3.40;2.13;;;2.30;92.30;;;;;;5013827;28;20489;-63
2021/11/23 01:26:53;;;;;;;3.22;1.60;;;2.30;92.40;;;;;;5013716;28;20022;-63
2021/11/23 01:29:18;;;;;;;3.10;1.60;;;2.40;92.40;;;;;;5013743;28;20490;-63
2021/11/23 01:31:44;;;;;;;3.05;1.90;;;2.40;92.40;;;;;;5013346;28;20112;-63
2021/11/23 01:34:09;;;;;;;2.78;1.80;;;2.40;92.30;;;;;;4995829;28;20482;-63
2021/11/23 01:36:35;;;;;;;4.18;1.83;;;2.50;92.40;;;;;;5019929;28;20029;-63
2021/11/23 01:39:00;;;;;;;3.80;1.83;;;2.50;92.40;;;;;;5017790;28;20045;-63
2021/11/23 01:41:26;;;;;;;4.90;2.42;;;2.60;92.40;;;;;;4995870;28;20060;-63
2021/11/23 01:43:51;;;;;;;2.88;1.65;;;2.60;92.40;;;;;;5011578;28;20026;-63
2021/11/23 01:46:17;;;;;;;4.15;2.03;;;2.60;92.40;;;;;;5013347;28;20032;-63
2021/11/23 01:48:43;;;;;;;3.97;2.05;;;2.70;92.50;;;;;;5013421;28;20018;-63
2021/11/23 01:51:08;;;;;;;4.38;2.05;;;2.70;92.50;;;;;;5013517;28;20057;-63
2021/11/23 01:53:35;;;;;;;3.58;2.28;;;2.70;92.60;;;;;;5010247;28;20108;-63
2021/11/23 01:56:01;;;;;;;4.13;1.38;;;2.70;92.60;;;;;;5013295;28;20030;-63
2021/11/23 01:58:26;;;;;;;4.43;2.65;;;2.70;92.60;;;;;;5012981;28;20046;-62
2021/11/23 02:00:52;;;;;;;5.78;2.47;;;2.70;92.70;;;;;;5013101;28;20084;-62
2021/11/23 02:03:18;;;;;;;2.42;1.65;;;2.70;92.80;;;;;;5013277;28;20030;-63
2021/11/23 02:05:44;;;;;;;3.97;2.03;;;2.70;92.90;;;;;;5013096;28;20037;-62
2021/11/23 02:08:11;;;;;;;3.42;1.63;;;2.70;93.00;;;;;;5013067;28;20474;-62
2021/11/23 02:10:37;;;;;;;3.17;1.70;;;2.70;93.00;;;;;;5004211;28;20028;-62
2021/11/23 02:13:03;;;;;;;3.28;1.65;;;2.70;93.10;;;;;;5015568;28;20547;-62
2021/11/23 02:15:28;;;;;;;4.32;1.95;;;2.80;93.10;;;;;;5013079;28;20026;-62
2021/11/23 02:17:55;;;;;;;4.78;2.05;;;2.80;93.20;;;;;;5012469;28;20489;-62
2021/11/23 02:20:23;;;;;;;3.08;2.00;;;2.80;93.20;;;;;;5013290;28;20054;-62
2021/11/23 02:22:49;;;;;;;3.67;2.10;;;2.90;93.20;;;;;;4994983;28;20022;-62
2021/11/23 02:25:17;;;;;;;3.50;2.22;;;2.90;93.30;;;;;;5012715;28;20029;-63
2021/11/23 02:27:44;;;;;;;6.20;2.08;;;2.90;93.30;;;;;;5012577;28;20022;-62
2021/11/23 02:30:11;;;;;;;4.15;2.00;;;3.00;93.30;;;;;;5012194;28;20420;-62
2021/11/23 02:32:55;;;;;;;7.30;3.75;;;3.00;93.40;;;;;;4994264;28;20382;-63
2021/11/23 02:35:23;;;;;;;4.20;2.00;;;3.00;93.40;;;;;;5010823;28;20025;-62
2021/11/23 02:37:52;;;;;;;3.97;2.10;;;3.00;93.50;;;;;;4994848;28;20355;-62
2021/11/23 02:40:18;;;;;;;2.40;1.45;;;3.00;93.50;;;;;;5012468;28;20018;-62
2021/11/23 02:42:44;;;;;;;2.97;1.80;;;3.00;93.60;;;;;;5012091;28;20026;-62
2021/11/23 02:45:10;;;;;;;3.47;1.90;;;3.00;93.70;;;;;;4993859;28;20470;-62
2021/11/23 02:47:38;;;;;;;6.13;1.75;;;3.10;93.70;;;;;;5009614;28;20018;-63
2021/11/23 02:50:06;;;;;;;4.03;2.10;;;3.10;93.70;;;;;;5012440;28;20029;-62
2021/11/23 02:52:31;;;;;;;3.28;1.83;;;3.20;93.80;;;;;;5011946;28;20021;-62
2021/11/23 02:54:59;;;;;;;4.35;1.90;;;3.10;93.80;;;;;;5012300;28;20025;-62
2021/11/23 02:57:29;;;;;;;4.05;2.05;;;3.20;93.90;;;;;;5012072;28;21235;-62
2021/11/23 02:59:55;;;;;;;5.78;2.47;;;3.20;93.90;;;;;;5012039;28;20033;-62
2021/11/23 03:02:21;;;;;;;3.58;2.03;;;3.20;93.90;;;;;;5011902;28;20022;-62
2021/11/23 03:04:56;;;;;;;5.15;2.10;;;3.20;94.00;;;;;;5009108;28;20026;-62
2021/11/23 03:07:22;;;;;;;4.63;3.28;;;3.20;94.10;;;;;;5012234;28;20462;-63
2021/11/23 03:09:48;;;;;;;4.43;2.22;;;3.20;94.10;;;;;;5011962;28;20026;-62
2021/11/23 03:12:19;;;;;;;5.22;2.85;;;3.20;94.20;;;;;;5011810;28;20036;-62
2021/11/23 03:14:45;;;;;;;3.75;2.30;;;3.20;94.30;;;;;;5011810;28;20026;-62
2021/11/23 03:17:12;;;;;;;5.68;1.90;;;3.20;94.40;;;;;;4994225;28;20022;-62
2021/11/23 03:19:38;;;;;;;4.82;2.00;;;3.20;94.40;;;;;;4994113;28;20072;-62
2021/11/23 03:22:04;;;;;;;4.10;2.10;;;3.30;94.50;;;;;;5011378;28;20037;-62
2021/11/23 03:24:30;;;;;;;2.60;1.83;;;3.30;94.50;;;;;;4994017;28;20068;-62
2021/11/23 03:26:56;;;;;;;3.33;1.83;;;3.30;94.60;;;;;;5011625;28;20022;-62
2021/11/23 03:29:22;;;;;;;3.38;1.92;;;3.30;94.60;;;;;;5011815;28;20453;-62
2021/11/23 03:31:47;;;;;;;4.68;1.95;;;3.40;94.70;;;;;;4993869;28;20421;-62
2021/11/23 03:34:14;;;;;;;4.30;2.63;;;3.40;94.70;;;;;;5010842;28;20022;-62
2021/11/23 03:36:40;;;;;;;6.45;3.47;;;3.40;94.80;;;;;;5011621;28;20077;-62
2021/11/23 03:39:07;;;;;;;6.80;3.63;;;3.40;95.00;;;;;;5011604;28;20026;-62
2021/11/23 03:41:32;;;;;;;6.05;3.50;;;3.30;95.50;;;;;;4993605;28;20026;-62
2021/11/23 03:43:58;;;;;;;9.10;3.60;;;3.30;95.70;;;;;;5010703;28;20057;-62
2021/11/23 03:46:23;;;;;;;5.07;3.15;;;3.30;96.00;;;;;;5011737;28;20021;-62
2021/11/23 03:48:49;;;;;;;5.35;2.97;;;3.30;96.20;;;;;;5011735;28;20022;-62
2021/11/23 03:51:14;;;;;;;6.25;3.00;;;3.30;96.30;;;;;;5011302;28;20032;-62
2021/11/23 03:53:40;;;;;;;6.00;3.38;;;3.40;96.50;;;;;;5011684;28;20028;-62
2021/11/23 03:56:06;;;;;;;5.13;3.35;;;3.40;96.80;;;;;;5011141;28;20091;-62
2021/11/23 03:58:32;;;;;;;4.22;2.67;;;3.40;96.90;;;;;;5010462;28;20129;-62
2021/11/23 04:01:07;;;;;;;5.80;3.03;;;3.50;97.00;;;;;;5010894;28;20037;-62
2021/11/23 04:03:33;;;;;;;7.22;2.50;;;3.50;97.00;;;;;;5010074;28;20072;-62
2021/11/23 04:06:00;;;;;;;5.85;3.13;;;3.50;97.00;;;;;;5010900;28;20023;-62
2021/11/23 04:08:25;;;;;;;4.85;2.45;;;3.50;97.10;;;;;;5010984;28;20091;-63
2021/11/23 04:10:51;;;;;;;7.82;3.10;;;3.60;97.20;;;;;;5010477;28;21158;-63
2021/11/23 04:13:18;;;;;;;5.75;2.65;;;3.60;97.40;;;;;;4992991;28;20018;-63
2021/11/23 04:15:44;;;;;;;5.50;2.97;;;3.60;97.40;;;;;;5010818;28;20037;-63
2021/11/23 04:18:10;;;;;;;5.53;2.65;;;3.70;97.50;;;;;;5010266;28;20026;-63
2021/11/23 04:20:35;;;;;;;4.95;2.22;;;3.70;97.50;;;;;;5010352;28;20028;-63
2021/11/23 04:23:01;;;;;;;5.07;2.08;;;3.80;97.50;;;;;;5010516;28;20113;-62
2021/11/23 04:25:27;;;;;;;5.10;2.60;;;3.80;97.50;;;;;;4992820;28;20014;-62
2021/11/23 04:27:53;;;;;;;5.35;2.88;;;3.80;97.50;;;;;;5010515;28;20037;-63
2021/11/23 04:30:19;;;;;;;3.70;2.22;;;3.80;97.50;;;;;;5010480;28;20029;-62
2021/11/23 04:32:44;;;;;;;4.60;2.28;;;3.90;97.50;;;;;;5010535;28;20029;-63
2021/11/23 04:35:11;;;;;;;4.43;2.08;;;3.90;97.50;;;;;;5009926;28;20029;-63
2021/11/23 04:37:37;;;;;;;4.85;1.92;;;4.00;97.60;;;;;;5010284;28;20030;-63
2021/11/23 04:40:04;;;;;;;5.93;2.03;;;4.00;97.60;;;;;;4990146;28;20435;-62
2021/11/23 04:42:29;;;;;;;3.55;1.75;;;4.00;97.60;;;;;;5010103;28;20026;-63
2021/11/23 04:44:55;;;;;;;5.47;2.00;;;4.10;97.70;;;;;;5008844;28;20107;-62
2021/11/23 04:47:21;;;;;;;5.32;2.25;;;4.10;97.70;;;;;;5010406;28;20022;-62
2021/11/23 04:49:46;;;;;;;4.53;2.25;;;4.10;97.70;;;;;;5010428;28;20045;-62
2021/11/23 04:52:12;;;;;;;5.00;2.40;;;4.10;97.70;;;;;;5010087;28;20034;-62
2021/11/23 04:54:38;;;;;;;5.43;2.50;;;4.20;97.80;;;;;;5011470;28;20422;-62
2021/11/23 04:57:04;;;;;;;6.15;2.75;;;4.20;97.80;;;;;;5013808;28;20517;-62
2021/11/23 04:59:30;;;;;;;3.70;2.50;;;4.20;97.80;;;;;;5013350;28;20050;-62
2021/11/23 05:01:57;;;;;;;8.18;2.45;;;4.30;97.80;;;;;;5012914;28;20041;-62
2021/11/23 05:04:22;;;;;;;4.40;2.38;;;4.30;97.90;;;;;;5013048;28;20025;-62
2021/11/23 05:06:48;;;;;;;5.13;2.67;;;4.30;98.20;;;;;;5013553;28;20017;-62
2021/11/23 05:09:13;;;;;;;4.47;2.25;;;4.30;97.90;;;;;;5013101;28;20021;-62
2021/11/23 05:11:42;;;;;;;4.05;1.83;;;4.40;98.00;;;;;;5013346;28;20014;-62
2021/11/23 05:14:08;;;;;;;4.75;2.00;;;4.40;98.00;;;;;;5013618;28;20018;-62
2021/11/23 05:16:34;;;;;;;5.53;2.72;;;4.50;98.10;;;;;;5012859;28;20506;-62
2021/11/23 05:18:59;;;;;;;4.40;2.40;;;4.40;98.10;;;;;;5013627;28;20022;-62
2021/11/23 05:21:25;;;;;;;4.22;2.65;;;4.50;98.20;;;;;;5013296;28;20408;-62
2021/11/23 05:23:50;;;;;;;4.93;2.75;;;4.50;98.20;;;;;;5013084;28;20026;-62
2021/11/23 05:26:16;;;;;;;8.90;3.28;;;4.60;98.30;;;;;;5012927;28;20021;-62
2021/11/23 05:28:41;;;;;;;4.30;2.60;;;4.60;98.30;;;;;;5012999;28;20033;-62
2021/11/23 05:31:07;;;;;;;6.38;2.90;;;4.60;98.30;;;;;;5013115;28;20018;-62
2021/11/23 05:33:32;;;;;;;4.43;2.38;;;4.60;98.30;;;;;;5012901;28;20453;-62
2021/11/23 05:35:58;;;;;;;3.90;2.30;;;4.60;98.30;;;;;;5010179;28;20022;-62
2021/11/23 05:38:23;;;;;;;4.65;3.20;;;4.70;98.40;;;;;;4993515;28;20022;-62
2021/11/23 05:40:49;;;;;;;8.63;3.38;;;4.70;98.50;;;;;;5012774;28;20390;-62
2021/11/23 05:43:19;;;;;;;5.10;2.83;;;4.70;98.50;;;;;;4993850;28;20053;-62
2021/11/23 05:45:45;;;;;;;6.38;3.08;;;4.70;98.60;;;;;;4995332;28;20486;-62
2021/11/23 05:48:11;;;;;;;8.48;3.53;;;4.80;98.70;;;;;;5013159;28;20026;-62
2021/11/23 05:50:38;;;;;;;4.63;2.85;;;4.80;98.70;;;;;;5012537;28;20044;-62
2021/11/23 05:53:04;;;;;;;8.88;3.60;;;4.80;98.70;;;;;;5012980;28;20528;-62
2021/11/23 05:55:30;;;;;;;6.00;2.92;;;4.80;98.70;;;;;;4994950;28;20030;-62
2021/11/23 05:57:56;;;;;;;7.00;3.42;;;4.80;98.80;;;;;;4994668;28;20049;-62
2021/11/23 06:00:22;;;;;;;6.45;3.20;;;4.80;98.80;;;;;;5012494;28;20117;-62
2021/11/23 06:02:48;;;;;;;4.70;3.10;;;4.80;98.80;;;;;;5012318;28;20105;-62
2021/11/23 06:05:13;;;;;;;6.50;3.05;;;4.90;98.90;;;;;;5011379;28;20041;-62
2021/11/23 06:07:39;;;;;;;7.47;3.55;;;4.80;98.90;;;;;;5011919;28;20029;-62
2021/11/23 06:10:05;;;;;;;6.10;3.15;;;4.90;99.00;;;;;;5012658;28;20061;-62
2021/11/23 06:12:31;;;;;;;7.13;3.67;;;4.90;99.00;;;;;;5012533;28;20053;-62
2021/11/23 06:14:58;;;;;;;6.97;3.65;;;4.90;99.00;;;;;;5012061;28;20109;-62
2021/11/23 06:17:26;;;;;;;6.50;3.40;;;4.90;99.10;;;;;;5012302;28;20038;-62
2021/11/23 06:19:52;;;;;;;7.70;3.85;;;4.90;99.10;;;;;;4994531;28;20383;-62
2021/11/23 06:22:17;;;;;;;5.65;3.47;;;4.90;99.20;;;;;;5011732;28;20049;-63
2021/11/23 06:24:46;;;;;;;7.28;3.63;;;5.00;99.30;;;;;;5011845;28;20053;-62
2021/11/23 06:27:12;;;;;;;6.22;3.90;;;5.00;99.30;;;;;;5012100;28;20022;-62
2021/11/23 06:29:37;;;;;;;10.85;3.85;;;5.00;99.40;;;;;;5011748;28;20030;-62
2021/11/23 06:32:03;;;;;;;7.15;3.40;;;5.00;99.40;;;;;;5012243;28;20046;-62
2021/11/23 06:34:28;;;;;;;5.60;2.95;;;5.00;99.50;;;;;;5011666;28;20124;-62
2021/11/23 06:36:55;;;;;;;5.68;2.85;;;5.00;99.50;;;;;;5011568;28;20060;-62
2021/11/23 06:39:24;;;;;;;6.55;3.03;;;5.10;99.50;;;;;;5012110;28;20121;-62
2021/11/23 06:41:49;;;;;;;7.60;3.15;;;5.10;99.50;;;;;;5011948;28;20022;-62
2021/11/23 06:44:15;;;;;;;6.07;2.92;;;5.10;99.50;;;;;;5000460;28;20451;-62
2021/11/23 06:46:41;;;;;;;5.20;3.13;;;5.20;99.50;;;;;;4976322;28;20042;-62
2021/11/23 06:49:29;;;;;;;;;;;;;;;;;;;;;
2021/11/23 06:51:55;;;;;;;5.55;3.05;;;5.30;99.50;;;;;;5013201;28;20042;-62
2021/11/23 06:54:21;;;;;;;8.07;3.67;;;5.20;99.50;;;;;;5013710;28;20439;-62
2021/11/23 06:56:49;;;;;;;5.80;3.10;;;5.30;99.50;;;;;;5013517;28;20033;-62
2021/11/23 06:59:15;;;;;;;4.95;3.08;;;5.30;99.50;;;;;;5013581;28;20053;-62
2021/11/23 07:01:40;;;;;;;5.95;2.63;;;5.30;99.50;;;;;;5013382;28;20080;-62
2021/11/23 07:04:06;;;;;;;5.03;3.00;;;5.30;99.50;;;;;;5011425;28;20560;-62
2021/11/23 07:06:31;;;;;;;6.90;3.30;;;5.30;99.50;;;;;;5010740;28;20486;-62
2021/11/23 07:08:57;;;;;;;7.97;3.00;;;5.30;99.50;;;;;;4991591;28;20026;-62
2021/11/23 07:11:30;;;;;;;7.63;3.20;;;5.30;99.50;;;;;;5012882;28;20096;-62
2021/11/23 07:14:10;;;;;;;;;;;;;;;;;;;;;
2021/11/23 07:16:56;;;;;;;6.25;3.63;;;5.30;99.60;;;;;;5012206;28;20470;-62
2021/11/23 07:22:33;;;;;;;7.00;3.40;;;5.40;99.90;;;;;;4986231;28;20041;-62
2021/11/23 07:24:58;;;;;;;7.35;3.17;;;5.30;99.90;;;;;;5013112;28;20386;-62
2021/11/23 07:27:24;;;;;;;5.88;3.05;;;5.30;99.90;;;;;;5013219;28;20025;-62
2021/11/23 07:29:49;;;;;;;5.63;3.03;;;5.30;99.90;;;;;;5012897;28;20057;-62
2021/11/23 07:32:25;;;;;;;4.40;2.60;;;5.30;99.90;;;;;;5013051;28;20026;-62
2021/11/23 07:35:34;;;;;;;5.13;2.80;;;5.40;99.90;;;;;;4994800;28;20064;-63
2021/11/23 07:38:39;;;;;;;5.45;3.20;;;5.40;99.90;;;;;;5004454;28;20021;-62
2021/11/23 07:41:04;;;;;;;4.78;2.50;;;5.40;99.90;;;;;;4997184;28;20050;-62
2021/11/23 07:43:30;;;;;;;4.75;2.60;;;5.40;99.90;;;;;;5006917;28;20479;-62
2021/11/23 07:45:56;;;;;;;6.97;2.90;;;5.40;99.90;;;;;;5008039;28;20026;-63
2021/11/23 07:48:33;;;;;;;6.03;3.80;;;5.40;99.90;;;;;;4993546;28;20023;-63
2021/11/23 07:51:14;;;;;;;7.30;3.65;;;5.40;99.90;;;;;;5008991;28;20032;-62
2021/11/23 07:53:42;;;;;;;7.53;3.95;;;5.50;99.90;;;;;;5007992;28;20030;-62
2021/11/23 07:56:07;;;;;;;6.22;3.45;;;5.50;99.90;;;;;;5011247;28;20054;-63
2021/11/23 07:58:33;;;;;;;6.03;2.85;;;5.50;99.90;;;;;;5010902;28;20067;-62
2021/11/23 08:01:01;;;;;;;6.72;2.90;;;5.50;99.90;;;;;;4993479;28;20034;-62
2021/11/23 08:03:27;;;;;;;6.22;3.08;;;5.60;99.90;;;;;;5008107;28;20076;-62
2021/11/23 08:05:52;;;;;;;7.10;2.95;;;5.60;99.90;;;;;;5010690;28;20478;-63
2021/11/23 08:08:18;;;;;;;5.97;3.47;;;5.60;99.90;;;;;;5008359;28;20022;-62
2021/11/23 08:10:44;;;;;;;7.55;2.97;;;5.60;99.90;;;;;;5006065;28;20075;-62
2021/11/23 08:13:18;;;;;;;5.70;2.97;;;5.60;99.90;;;;;;5010198;28;20084;-62
2021/11/23 08:16:08;;;;;;;4.93;2.40;;;5.60;99.90;;;;;;5010931;28;20496;-63
2021/11/23 08:22:05;;;;;;;4.88;2.45;;;5.60;99.90;;;;;;4971091;28;20155;-63
2021/11/23 08:24:31;;;;;;;7.57;2.75;;;5.60;99.90;;;;;;4970356;28;20027;-62
2021/11/23 08:26:59;;;;;;;5.40;2.70;;;5.70;99.90;;;;;;4995824;28;20045;-62
2021/11/23 08:29:44;;;;;;;;;;;;;;;;;;;;;
2021/11/23 08:32:29;;;;;;;5.05;3.10;;;5.70;99.90;;;;;;4996312;28;20022;-62
2021/11/23 08:34:55;;;;;;;6.20;3.17;;;5.80;99.90;;;;;;5003802;28;20038;-62
2021/11/23 08:37:20;;;;;;;6.18;3.40;;;5.80;99.90;;;;;;5016178;28;20564;-62
2021/11/23 08:39:46;;;;;;;6.95;3.28;;;5.80;99.90;;;;;;4997895;28;20117;-62
2021/11/23 08:42:12;;;;;;;4.43;3.15;;;5.80;99.90;;;;;;5015974;28;20034;-62
2021/11/23 08:44:38;;;;;;;5.50;2.97;;;5.90;99.90;;;;;;5015816;28;20018;-62
2021/11/23 08:47:19;;;;;;;;;;;;;;;;;;;;;
2021/11/23 08:49:56;;;;;;;5.85;3.67;;;6.00;99.90;;;;;;5000671;28;20019;-62
2021/11/23 08:53:07;;;;;;;4.45;3.00;;;6.00;99.90;;;;;;5009805;28;20038;-62
2021/11/23 08:55:33;;;;;;;4.93;2.92;;;6.10;99.90;;;;;;5015607;28;20117;-62
2021/11/23 08:57:58;;;;;;;8.63;3.30;;;6.10;99.90;;;;;;5015046;28;20125;-62
2021/11/23 09:00:24;;;;;;;5.45;3.22;;;6.20;99.90;;;;;;5015892;28;20124;-62
2021/11/23 09:02:55;;;;;;;7.07;3.15;;;6.20;99.90;;;;;;5015250;28;20041;-62
2021/11/23 09:05:40;;;;;;;6.03;2.75;;;6.30;99.90;;;;;;5015665;28;20045;-62
2021/11/23 09:08:10;;;;;;;8.07;3.53;;;6.40;99.90;;;;;;5014929;28;20022;-63
2021/11/23 09:10:39;;;;;;;6.93;2.70;;;6.50;99.90;;;;;;5015279;28;20095;-63
2021/11/23 09:13:05;;;;;;;6.38;3.20;;;6.60;99.90;;;;;;5014761;28;20452;-62
2021/11/23 09:15:31;;;;;;;6.05;3.22;;;6.70;99.90;;;;;;5011675;28;20025;-62
2021/11/23 09:18:00;;;;;;;6.63;2.90;;;6.80;99.80;;;;;;5014366;28;20113;-62
2021/11/23 09:26:13;;;;;;;4.57;2.70;;;7.00;99.70;;;;;;4991474;28;20076;-62
2021/11/23 09:28:39;;;;;;;6.07;3.10;;;7.00;99.70;;;;;;5014020;28;20026;-62
2021/11/23 09:31:05;;;;;;;6.18;3.10;;;7.00;99.80;;;;;;5004193;28;20487;-62
2021/11/23 09:33:31;;;;;;;4.53;3.22;;;7.00;99.80;;;;;;5014535;28;20102;-62
2021/11/23 09:36:12;;;;;;;6.30;3.33;;;7.00;99.90;;;;;;5014339;28;20053;-62
2021/11/23 09:38:49;;;;;;;4.65;2.40;;;7.10;99.90;;;;;;5013725;28;20057;-62
2021/11/23 09:41:15;;;;;;;5.88;2.75;;;7.30;99.90;;;;;;5014312;28;20029;-62
2021/11/23 09:43:42;;;;;;;5.18;2.58;;;7.50;99.90;;;;;;5012501;28;20025;-62
2021/11/23 09:46:09;;;;;;;7.00;2.92;;;7.80;99.80;;;;;;5014736;28;20024;-62
2021/11/23 09:48:40;;;;;;;8.55;3.00;;;7.90;99.50;;;;;;5013835;28;20025;-62
2021/11/23 09:51:19;;;;;;;6.82;2.63;;;8.00;99.40;;;;;;5014897;28;20048;-62
2021/11/23 09:53:44;;;;;;;4.97;2.50;;;8.30;99.40;;;;;;4995520;28;20034;-62
2021/11/23 09:56:10;;;;;;;4.72;2.45;;;8.70;99.40;;;;;;5007752;28;20393;-62
2021/11/23 09:58:36;;;;;;;4.65;2.35;;;9.20;99.20;;;;;;5010131;28;20100;-62
2021/11/23 10:01:06;;;;;;;5.05;2.58;;;9.60;98.70;;;;;;5013945;28;20041;-62
2021/11/23 10:03:33;;;;;;;;;;;9.80;98.30;;;;;;5014166;28;20022;-62
2021/11/23 10:09:08;;;;;;;6.88;2.65;;;10.00;98.20;;;;;;5002717;28;20476;-62
2021/11/23 10:11:49;;;;;;;5.88;2.72;;;10.00;98.10;;;;;;4996241;28;20057;-62
2021/11/23 10:14:15;;;;;;;4.78;2.33;;;10.00;98.10;;;;;;5013743;28;20026;-62
2021/11/23 10:16:43;;;;;;;7.38;3.55;;;9.90;98.30;;;;;;4999096;28;20084;-62
2021/11/23 10:19:23;;;;;;;4.43;2.42;;;9.90;98.40;;;;;;5013574;28;20546;-62
2021/11/23 10:21:50;;;;;;;;;;;9.90;98.40;;;;;;5014162;28;20088;-62
2021/11/23 10:24:16;;;;;;;4.93;2.70;;;9.90;98.50;;;;;;4997052;28;19905;-62
2021/11/23 10:26:42;;;;;;;6.18;2.58;;;10.00;98.70;;;;;;5006155;28;20076;-62
2021/11/23 10:29:08;;;;;;;6.28;2.25;;;10.10;98.60;;;;;;5013027;28;20022;-62
2021/11/23 10:31:40;;;;;;;5.35;2.88;;;10.20;98.50;;;;;;5013279;28;20414;-62
2021/11/23 10:34:09;;;;;;;5.18;2.55;;;10.20;98.40;;;;;;5013806;28;20437;-62
2021/11/23 10:36:38;;;;;;;8.55;3.13;;;10.30;98.40;;;;;;5012323;28;20132;-62
2021/11/23 10:42:06;;;;;;;5.35;2.47;;;10.50;98.40;;;;;;5004386;28;20017;-62
2021/11/23 10:44:53;;;;;;;5.07;3.40;;;10.80;98.30;;;;;;5003211;28;20018;-62
2021/11/23 10:47:48;;;;;;;;;;;;;;;;;;;;;
2021/11/23 10:50:28;;;;;;;6.40;2.53;;;11.20;97.50;;;;;;5013387;28;20145;-62
2021/11/23 10:52:54;;;;;;;7.13;2.70;;;11.30;97.30;;;;;;5012087;28;20048;-62
2021/11/23 10:55:22;;;;;;;5.22;2.70;;;11.30;97.20;;;;;;5013763;28;20030;-62
2021/11/23 10:57:48;;;;;;;7.30;3.30;;;11.30;97.10;;;;;;5013096;28;20506;-62
2021/11/23 11:00:14;;;;;;;4.85;2.85;;;11.40;97.20;;;;;;5013185;28;20145;-62
2021/11/23 11:02:42;;;;;;;6.15;2.60;;;11.40;97.10;;;;;;5013118;28;20485;-62
2021/11/23 11:05:10;;;;;;;5.47;3.47;;;11.50;97.10;;;;;;5013477;28;20018;-62
2021/11/23 11:07:37;;;;;;;5.53;2.63;;;11.50;97.00;;;;;;5013215;28;20029;-62
2021/11/23 11:10:06;;;;;;;7.35;2.33;;;11.50;97.00;;;;;;5013181;28;20044;-63
2021/11/23 11:12:32;;;;;;;6.53;2.78;;;11.50;97.00;;;;;;4995467;28;20026;-62
2021/11/23 11:14:59;;;;;;;3.75;2.10;;;11.60;97.00;;;;;;5013369;28;20398;-62
2021/11/23 11:17:28;;;;;;;5.38;2.78;;;11.90;96.90;;;;;;5013213;28;20515;-62
2021/11/23 11:19:55;;;;;;;6.18;3.42;;;12.00;96.50;;;;;;5012069;28;20474;-62
2021/11/23 11:22:23;;;;;;;6.30;3.42;;;12.00;96.30;;;;;;5012999;28;20034;-62
2021/11/23 11:25:25;;;;;;;4.95;2.67;;;12.00;96.30;;;;;;5011579;28;20021;-63
2021/11/23 11:28:33;;;;;;;6.55;2.83;;;11.90;96.30;;;;;;5011239;28;20025;-63
2021/11/23 11:31:06;;;;;;;5.93;2.45;;;12.20;96.60;;;;;;4997503;28;20482;-63
2021/11/23 11:33:47;;;;;;;;;;;;;;;;;;;;;
2021/11/23 11:37:05;;;;;;;4.10;2.30;;;14.20;95.80;;;;;;5013119;28;20032;-63
2021/11/23 11:39:36;;;;;;;3.05;2.00;;;16.10;94.10;;;;;;4938516;28;20118;-63
2021/11/23 11:42:34;;;;;;;7.13;3.03;;;17.70;92.40;;;;;;5013066;28;20032;-63
2021/11/23 11:45:09;;;;;;;3.92;1.67;;;19.40;90.20;;;;;;4994098;28;20209;-64
2021/11/23 11:47:36;;;;;;;4.65;2.00;;;20.90;85.60;;;;;;4975658;28;20034;-63
2021/11/23 11:50:09;;;;;;;3.53;1.63;;;21.20;81.70;;;;;;4992931;28;20027;-63
2021/11/23 11:52:57;;;;;;;5.25;1.60;;;21.00;80.20;;;;;;4977456;28;20040;-64
2021/11/23 11:55:47;;;;;;;5.15;1.88;;;20.50;79.60;;;;;;5010998;28;20397;-64
2021/11/23 11:58:55;;;;;;;3.47;1.63;;;20.40;80.90;;;;;;4993620;28;20046;-64
2021/11/23 12:01:37;;;;;;;3.33;1.30;;;21.80;78.10;;;;;;4978379;28;20030;-64
2021/11/23 12:04:16;;;;;;;5.13;1.52;;;22.50;73.90;;;;;;5012709;28;20607;-63
2021/11/23 12:06:56;;;;;;;4.00;2.00;;;21.90;72.80;;;;;;5016373;28;20100;-63
2021/11/23 12:09:43;;;;;;;3.42;1.80;;;20.90;73.20;;;;;;5010084;28;20026;-64
2021/11/23 12:12:09;;;;;;;3.08;1.70;;;20.00;74.20;;;;;;5015393;28;20041;-63
2021/11/23 12:15:01;;;;;;;3.72;1.55;;;19.20;75.70;;;;;;5016268;28;20437;-63
2021/11/23 12:17:29;;;;;;;5.20;2.08;;;18.50;76.50;;;;;;5015575;28;20030;-63
2021/11/23 12:19:57;;;;;;;3.72;1.55;;;17.80;77.90;;;;;;5014664;28;20036;-63
2021/11/23 12:22:27;;;;;;;4.38;1.95;;;17.40;78.60;;;;;;5016228;28;20025;-63
2021/11/23 12:24:53;;;;;;;;;;;17.00;78.90;;;;;;5016536;28;20030;-63
2021/11/23 12:27:46;;;;;;;5.10;2.05;;;16.60;79.40;;;;;;5016247;28;19907;-63
2021/11/23 12:33:47;;;;;;;5.55;2.40;;;15.90;81.40;;;;;;4977803;28;20045;-63
2021/11/23 12:36:53;;;;;;;2.90;1.30;;;15.50;82.40;;;;;;5016329;28;20520;-63
2021/11/23 12:39:24;;;;;;;4.88;1.20;;;15.30;82.80;;;;;;4995814;28;20038;-63
2021/11/23 12:42:16;;;;;;;;;;;;;;;;;;;;;
2021/11/23 12:44:44;;;;;;;2.10;1.27;;;15.00;83.70;;;;;;5002128;28;20097;-63
2021/11/23 12:47:16;;;;;;;3.22;1.48;;;14.70;84.30;;;;;;5014393;28;20026;-63
2021/11/23 12:50:05;;;;;;;2.40;1.17;;;14.60;84.80;;;;;;5014658;28;20061;-63
2021/11/23 12:53:33;;;;;;;;;;;;;;;;;;;;;
2021/11/23 12:56:51;;;;;;;;;;;;;;;;;;;;;
2021/11/23 13:04:03;;;;;;;;;;;;;;;;;;;;;
2021/11/23 13:07:28;;;;;;;1.70;0.52;;;13.60;87.40;;;;;;4989980;28;20485;-63
2021/11/23 13:10:11;;;;;;;1.27;0.45;;;13.30;88.50;;;;;;4960107;28;20295;-63
2021/11/23 13:12:46;;;;;;;0.85;0.35;;;13.10;89.20;;;;;;4987941;28;20022;-62
2021/11/23 13:15:20;;;;;;;2.65;0.50;;;13.00;89.30;;;;;;4984983;28;20131;-62
2021/11/23 13:17:53;;;;;;;2.67;0.60;;;12.90;89.60;;;;;;4991555;28;20033;-62
2021/11/23 13:20:20;;;;;;;2.72;0.47;;;12.80;90.10;;;;;;4972494;28;20030;-62
2021/11/23 13:22:54;;;;;;;2.95;0.70;;;12.60;90.50;;;;;;4993800;28;20037;-62
2021/11/23 13:25:31;;;;;;;4.05;0.60;;;12.40;91.10;;;;;;4991022;28;20028;-62
2021/11/23 13:27:57;;;;;;;1.98;0.43;;;12.20;91.70;;;;;;4976192;28;20557;-62
2021/11/23 13:30:49;;;;;;;1.20;0.30;;;12.20;91.90;;;;;;4993760;28;20053;-62
2021/11/23 13:33:18;;;;;;;0.63;0.30;;;12.50;91.80;;;;;;4991716;28;20026;-62
2021/11/23 13:35:52;;;;;;;0.60;0.35;;;12.70;91.50;;;;;;4989096;28;20045;-62
2021/11/23 13:38:37;;;;;;;1.55;0.40;;;12.80;91.20;;;;;;4988447;28;20486;-62
2021/11/23 13:41:12;;;;;;;1.13;0.38;;;12.90;91.00;;;;;;4991191;28;20130;-63
2021/11/23 13:43:45;;;;;;;0.70;0.32;;;13.10;90.90;;;;;;4987890;28;20386;-62
2021/11/23 13:46:11;;;;;;;0.50;0.30;;;13.10;90.70;;;;;;4969048;28;20026;-62
2021/11/23 13:48:38;;;;;;;2.45;0.38;;;13.20;91.00;;;;;;4973902;28;20033;-63
2021/11/23 13:51:22;;;;;;;0.95;0.35;;;13.10;90.70;;;;;;4973178;28;20025;-63